Time;durP1;ratioP1;P1;durP2;ratioP2;P2;SDS_P1;SDS_P2;PMS_P1;PMS_P2;Temp;Humidity;BMP_temperature;BMP_pressure;BME280_temperature;BME280_humidity;BME280_pressure;Samples;Min_cycle;Max_cycle;Signal;HPM_P1;HPM_P2
2022/08/19 00:01:15;;;;;;;11.30;10.20;;;20.50;99.90;;;;;;5013487;28;20502;-52
2022/08/19 00:03:41;;;;;;;11.80;9.87;;;20.40;99.90;;;;;;5021811;28;21062;-52
2022/08/19 00:06:09;;;;;;;10.73;9.17;;;20.50;99.90;;;;;;5014849;28;20946;-52
2022/08/19 00:08:36;;;;;;;13.43;9.40;;;20.40;99.90;;;;;;5014636;28;20470;-52
2022/08/19 00:11:04;;;;;;;9.70;8.80;;;20.40;99.90;;;;;;5008412;28;20496;-52
2022/08/19 00:13:31;;;;;;;10.97;9.97;;;20.50;99.90;;;;;;5007561;28;20522;-51
2022/08/19 00:15:58;;;;;;;10.60;9.50;;;20.50;99.90;;;;;;5011732;28;20917;-53
2022/08/19 00:18:25;;;;;;;9.20;8.40;;;20.50;99.90;;;;;;5016785;28;20810;-51
2022/08/19 00:20:52;;;;;;;9.10;8.20;;;20.40;99.90;;;;;;5013029;28;20499;-51
2022/08/19 00:23:19;;;;;;;12.33;9.37;;;20.40;99.90;;;;;;5018799;28;20470;-52
2022/08/19 00:25:45;;;;;;;9.50;8.50;;;20.40;99.90;;;;;;5009075;28;20483;-51
2022/08/19 00:28:13;;;;;;;8.60;7.80;;;20.40;99.90;;;;;;5014767;28;20455;-53
2022/08/19 00:30:40;;;;;;;9.50;8.47;;;20.30;99.90;;;;;;5007477;28;20502;-52
2022/08/19 00:33:08;;;;;;;9.30;8.53;;;20.40;99.90;;;;;;5013274;28;20456;-52
2022/08/19 00:35:34;;;;;;;9.30;8.23;;;20.40;99.90;;;;;;5019001;28;20513;-52
2022/08/19 00:38:01;;;;;;;8.90;8.20;;;20.30;99.90;;;;;;5024959;28;21316;-53
2022/08/19 00:40:27;;;;;;;10.57;7.43;;;20.30;99.90;;;;;;5011085;28;20495;-50
2022/08/19 00:42:54;;;;;;;8.83;8.03;;;20.40;99.90;;;;;;5011575;28;20507;-53
2022/08/19 00:45:26;;;;;;;8.90;8.07;;;20.40;99.90;;;;;;5009435;28;20992;-51
2022/08/19 00:47:53;;;;;;;10.17;9.27;;;20.40;99.90;;;;;;5009554;28;20974;-52
2022/08/19 00:50:22;;;;;;;11.33;8.40;;;20.40;99.90;;;;;;5009718;28;21009;-53
2022/08/19 00:52:51;;;;;;;9.33;8.53;;;20.30;99.90;;;;;;5012473;28;21035;-51
2022/08/19 00:55:23;;;;;;;8.90;8.00;;;20.40;99.90;;;;;;5012127;28;20483;-52
2022/08/19 00:57:56;;;;;;;9.50;8.67;;;20.40;99.90;;;;;;5009891;28;20929;-51
2022/08/19 01:00:27;;;;;;;8.93;8.13;;;20.30;99.90;;;;;;5017425;28;20483;-52
2022/08/19 01:02:54;;;;;;;13.83;9.33;;;20.30;99.90;;;;;;5010718;28;20585;-51
2022/08/19 01:05:23;;;;;;;10.53;9.43;;;20.40;99.90;;;;;;5012820;28;20569;-51
2022/08/19 01:07:51;;;;;;;8.33;7.60;;;20.30;99.90;;;;;;5003023;28;20969;-51
2022/08/19 01:10:20;;;;;;;12.73;9.03;;;20.30;99.90;;;;;;5009500;28;20459;-51
2022/08/19 01:12:47;;;;;;;9.80;8.80;;;20.40;1.40;;;;;;5010152;28;21010;-51
2022/08/19 01:15:19;;;;;;;9.07;8.37;;;20.30;99.90;;;;;;5015472;28;20533;-52
2022/08/19 01:17:47;;;;;;;8.37;7.70;;;20.30;99.90;;;;;;5009362;28;20981;-51
2022/08/19 01:20:18;;;;;;;9.13;8.33;;;20.20;99.90;;;;;;5011457;28;20456;-52
2022/08/19 01:22:49;;;;;;;11.33;9.07;;;20.20;99.90;;;;;;5008129;28;20467;-52
2022/08/19 01:25:17;;;;;;;8.97;8.07;;;20.20;99.90;;;;;;5007720;28;21013;-52
2022/08/19 01:27:47;;;;;;;9.10;7.57;;;20.30;99.90;;;;;;5010321;28;20932;-52
2022/08/19 01:30:16;;;;;;;9.40;7.57;;;20.20;99.90;;;;;;5017976;28;20805;-52
2022/08/19 01:32:43;;;;;;;8.73;7.93;;;20.20;99.90;;;;;;5016278;28;20507;-52
2022/08/19 01:35:11;;;;;;;8.07;7.47;;;20.20;99.90;;;;;;5010024;28;20843;-51
2022/08/19 01:37:47;;;;;;;8.77;8.07;;;20.20;99.90;;;;;;5021324;28;20455;-51
2022/08/19 01:40:15;;;;;;;8.40;7.80;;;20.20;99.90;;;;;;5018410;28;20537;-52
2022/08/19 01:42:42;;;;;;;13.40;9.17;;;20.20;99.90;;;;;;5008435;28;20538;-52
2022/08/19 01:45:09;;;;;;;10.60;9.00;;;20.20;99.90;;;;;;5013472;28;20511;-51
2022/08/19 01:47:37;;;;;;;10.50;9.30;;;20.20;99.90;;;;;;5012669;28;20491;-52
2022/08/19 01:50:05;;;;;;;9.07;8.30;;;20.20;99.90;;;;;;5010269;28;20467;-51
2022/08/19 01:52:32;;;;;;;8.70;7.77;;;20.20;99.90;;;;;;5006133;28;20491;-52
2022/08/19 01:55:00;;;;;;;9.80;8.80;;;20.20;99.90;;;;;;5011684;28;20483;-53
2022/08/19 01:57:27;;;;;;;9.40;8.60;;;20.20;99.90;;;;;;5010314;28;20459;-53
2022/08/19 01:59:54;;;;;;;8.73;7.93;;;20.20;99.90;;;;;;5011085;28;20514;-51
2022/08/19 02:02:20;;;;;;;8.33;7.47;;;20.20;99.90;;;;;;5012601;28;20522;-53
2022/08/19 02:04:47;;;;;;;9.17;8.27;;;20.20;99.90;;;;;;5009033;28;20491;-52
2022/08/19 02:07:14;;;;;;;12.63;8.60;;;20.20;99.90;;;;;;5007557;28;20490;-52
2022/08/19 02:09:41;;;;;;;11.73;8.20;;;20.20;99.90;;;;;;5017762;28;20494;-52
2022/08/19 02:12:09;;;;;;;9.17;8.37;;;20.20;99.90;;;;;;5014272;28;20899;-53
2022/08/19 02:14:36;;;;;;;8.50;7.80;;;20.20;99.90;;;;;;5020492;28;20483;-51
2022/08/19 02:17:02;;;;;;;9.60;8.70;;;20.10;99.90;;;;;;5021291;28;20487;-52
2022/08/19 02:19:31;;;;;;;9.80;8.80;;;20.10;99.90;;;;;;5009569;28;20869;-52
2022/08/19 02:21:58;;;;;;;9.90;9.00;;;20.10;99.90;;;;;;5009633;28;20464;-53
2022/08/19 02:24:24;;;;;;;9.47;8.57;;;20.10;99.90;;;;;;5006274;28;20519;-52
2022/08/19 02:26:51;;;;;;;8.77;8.10;;;20.10;99.90;;;;;;5007872;28;20553;-52
2022/08/19 02:29:20;;;;;;;9.30;8.40;;;20.10;99.90;;;;;;5016977;28;20454;-52
2022/08/19 02:31:47;;;;;;;10.50;8.80;;;20.10;99.90;;;;;;5009759;28;20463;-52
2022/08/19 02:34:13;;;;;;;9.43;8.63;;;20.10;99.90;;;;;;5011167;28;20491;-52
2022/08/19 02:36:40;;;;;;;8.90;8.00;;;20.10;99.90;;;;;;5017127;28;20512;-52
2022/08/19 02:39:06;;;;;;;10.50;9.03;;;20.00;99.90;;;;;;5011072;28;20491;-52
2022/08/19 02:41:33;;;;;;;12.50;9.03;;;20.10;99.90;;;;;;5022734;28;20539;-52
2022/08/19 02:44:03;;;;;;;9.60;8.70;;;20.00;99.90;;;;;;5007658;28;20260;-53
2022/08/19 02:46:33;;;;;;;12.90;9.27;;;20.00;99.90;;;;;;5010210;28;20514;-52
2022/08/19 02:49:04;;;;;;;9.73;8.93;;;20.00;99.90;;;;;;5023376;28;20464;-52
2022/08/19 02:51:33;;;;;;;10.80;9.70;;;19.90;99.90;;;;;;5014093;28;20953;-52
2022/08/19 02:54:00;;;;;;;12.00;9.00;;;19.80;99.90;;;;;;5007395;28;21065;-52
2022/08/19 02:56:27;;;;;;;9.50;8.70;;;19.80;99.90;;;;;;5016031;28;20490;-52
2022/08/19 02:58:54;;;;;;;9.70;8.70;;;19.70;99.90;;;;;;5013400;28;20551;-54
2022/08/19 03:01:22;;;;;;;16.53;10.00;;;19.70;99.90;;;;;;5011286;28;20553;-52
2022/08/19 03:03:51;;;;;;;11.33;9.43;;;19.80;99.90;;;;;;5019055;28;20931;-52
2022/08/19 03:06:18;;;;;;;10.17;9.17;;;19.70;99.90;;;;;;5013294;28;20467;-52
2022/08/19 03:08:46;;;;;;;10.93;8.70;;;19.70;99.90;;;;;;5018782;28;20542;-52
2022/08/19 03:11:18;;;;;;;10.37;9.37;;;19.70;99.90;;;;;;5015683;28;20455;-52
2022/08/19 03:13:44;;;;;;;8.73;7.83;;;19.70;99.90;;;;;;5015266;28;20554;-52
2022/08/19 03:16:12;;;;;;;10.43;9.43;;;19.70;99.90;;;;;;5009347;28;20487;-52
2022/08/19 03:18:39;;;;;;;9.20;8.40;;;19.80;99.90;;;;;;5023931;28;20587;-52
2022/08/19 03:21:07;;;;;;;10.40;9.40;;;19.70;99.90;;;;;;5012853;28;20740;-52
2022/08/19 03:23:34;;;;;;;10.33;9.43;;;19.70;99.90;;;;;;5016343;28;20463;-52
2022/08/19 03:26:05;;;;;;;10.47;9.47;;;19.80;99.90;;;;;;5017643;28;20451;-52
2022/08/19 03:28:32;;;;;;;10.83;8.73;;;19.70;99.90;;;;;;5007948;28;20456;-53
2022/08/19 03:31:02;;;;;;;10.03;9.10;;;19.80;99.90;;;;;;5017724;28;20543;-52
2022/08/19 03:33:29;;;;;;;11.57;10.40;;;19.80;99.90;;;;;;5009607;28;20514;-51
2022/08/19 03:36:12;;;;;;;10.40;9.40;;;19.80;99.90;;;;;;5013653;28;20487;-51
2022/08/19 03:38:43;;;;;;;10.87;9.50;;;19.80;99.90;;;;;;5017235;28;20516;-53
2022/08/19 03:41:12;;;;;;;8.97;8.17;;;19.80;99.90;;;;;;5023524;28;20447;-52
2022/08/19 03:43:40;;;;;;;9.33;8.53;;;19.80;99.90;;;;;;5019282;28;20493;-52
2022/08/19 03:46:09;;;;;;;10.77;8.53;;;19.80;99.90;;;;;;5015636;28;20496;-52
2022/08/19 03:48:38;;;;;;;9.40;8.50;;;19.80;99.90;;;;;;5019767;28;20566;-51
2022/08/19 03:51:07;;;;;;;9.20;8.30;;;19.80;99.90;;;;;;5011215;28;20468;-51
2022/08/19 03:53:36;;;;;;;13.87;9.10;;;19.80;99.90;;;;;;5010038;28;20534;-51
2022/08/19 03:56:03;;;;;;;9.73;8.70;;;19.80;99.90;;;;;;5021298;28;20534;-52
2022/08/19 03:58:30;;;;;;;13.50;9.13;;;19.70;99.90;;;;;;5020613;28;20463;-52
2022/08/19 04:00:57;;;;;;;9.90;8.63;;;19.70;99.90;;;;;;5012680;28;20555;-52
2022/08/19 04:03:24;;;;;;;9.50;8.63;;;19.70;99.90;;;;;;5017411;28;20489;-53
2022/08/19 04:05:51;;;;;;;9.90;8.90;;;19.70;99.90;;;;;;5007712;28;20606;-51
2022/08/19 04:08:19;;;;;;;9.87;7.93;;;19.70;99.90;;;;;;5008884;28;20502;-51
2022/08/19 04:10:47;;;;;;;8.37;7.60;;;19.70;99.90;;;;;;5013709;28;20471;-53
2022/08/19 04:13:14;;;;;;;8.70;8.00;;;19.70;99.90;;;;;;5025295;28;20505;-51
2022/08/19 04:15:41;;;;;;;8.57;7.77;;;19.60;99.90;;;;;;5014489;28;20575;-51
2022/08/19 04:18:09;;;;;;;7.40;6.70;;;19.60;99.90;;;;;;5012653;28;20467;-52
2022/08/19 04:20:44;;;;;;;8.57;7.67;;;19.60;99.90;;;;;;5014962;28;20837;-53
2022/08/19 04:23:11;;;;;;;9.00;8.20;;;19.60;99.90;;;;;;5006792;28;20467;-52
2022/08/19 04:25:41;;;;;;;10.60;8.13;;;19.60;99.90;;;;;;5016596;28;20557;-51
2022/08/19 04:28:10;;;;;;;10.93;8.10;;;19.60;99.90;;;;;;5013852;28;20554;-52
2022/08/19 04:30:41;;;;;;;10.50;8.10;;;19.60;99.90;;;;;;5011733;28;20546;-52
2022/08/19 04:33:08;;;;;;;9.47;8.47;;;19.60;99.90;;;;;;5010679;28;21066;-52
2022/08/19 04:35:40;;;;;;;9.10;8.20;;;19.60;99.90;;;;;;5010911;28;20621;-52
2022/08/19 04:38:07;;;;;;;7.93;7.33;;;19.70;99.90;;;;;;5011515;28;20471;-52
2022/08/19 04:43:36;;;;;;;12.63;8.93;;;19.60;99.90;;;;;;4975753;28;20429;-53
2022/08/19 04:46:06;;;;;;;9.63;8.73;;;19.70;99.90;;;;;;4971366;28;20512;-52
2022/08/19 04:48:32;;;;;;;9.87;9.07;;;19.60;99.90;;;;;;4996263;28;20521;-52
2022/08/19 04:50:59;;;;;;;9.37;8.43;;;19.70;99.90;;;;;;5016460;28;20487;-53
2022/08/19 04:53:28;;;;;;;9.30;8.30;;;19.60;99.90;;;;;;5007668;28;20558;-52
2022/08/19 04:55:55;;;;;;;9.30;8.50;;;19.60;99.90;;;;;;5008927;28;20479;-52
2022/08/19 04:58:21;;;;;;;10.23;8.50;;;19.70;99.90;;;;;;5016198;28;20542;-51
2022/08/19 05:00:49;;;;;;;10.60;9.50;;;19.70;99.90;;;;;;5015383;28;20499;-52
2022/08/19 05:03:16;;;;;;;10.90;8.33;;;19.70;99.90;;;;;;5011127;28;20547;-52
2022/08/19 05:05:44;;;;;;;9.90;8.00;;;19.60;99.90;;;;;;5010062;28;20575;-52
2022/08/19 05:08:11;;;;;;;9.87;8.23;;;19.60;99.90;;;;;;5011281;28;20498;-52
2022/08/19 05:10:38;;;;;;;8.73;8.00;;;19.70;99.90;;;;;;5008683;28;21001;-53
2022/08/19 05:13:05;;;;;;;9.90;9.00;;;19.70;99.90;;;;;;5014845;28;20575;-53
2022/08/19 05:15:32;;;;;;;10.10;9.00;;;19.70;99.90;;;;;;5009770;28;20586;-53
2022/08/19 05:23:44;;;;;;;8.90;8.03;;;19.70;99.90;;;;;;4987306;28;20456;-52
2022/08/19 05:26:10;;;;;;;10.87;8.60;;;19.70;99.90;;;;;;4988161;28;20467;-52
2022/08/19 05:28:37;;;;;;;13.30;9.27;;;19.70;99.90;;;;;;5000923;28;20491;-53
2022/08/19 05:31:03;;;;;;;10.23;8.77;;;19.80;99.90;;;;;;5009761;28;21062;-52
2022/08/19 05:33:31;;;;;;;9.73;8.93;;;19.80;99.90;;;;;;5010695;28;20627;-51
2022/08/19 05:35:58;;;;;;;12.67;9.57;;;19.80;99.90;;;;;;5012861;28;20582;-53
2022/08/19 05:38:26;;;;;;;9.60;8.60;;;19.80;99.90;;;;;;5012827;28;20975;-52
2022/08/19 05:40:52;;;;;;;9.63;8.73;;;19.90;99.90;;;;;;5018972;28;20493;-51
2022/08/19 05:43:19;;;;;;;9.53;8.63;;;19.90;99.90;;;;;;5008764;28;20517;-52
2022/08/19 05:45:46;;;;;;;13.27;8.80;;;20.00;99.90;;;;;;5010149;28;20491;-52
2022/08/19 05:48:13;;;;;;;11.47;9.70;;;20.00;99.90;;;;;;5018140;28;22570;-51
2022/08/19 05:50:44;;;;;;;10.63;9.53;;;20.10;99.90;;;;;;5016824;28;20561;-52
2022/08/19 05:53:10;;;;;;;10.70;9.60;;;20.10;99.90;;;;;;5008805;28;20546;-52
2022/08/19 05:55:37;;;;;;;8.70;8.00;;;20.20;99.90;;;;;;5010821;28;20571;-52
2022/08/19 05:58:07;;;;;;;12.00;9.40;;;20.20;99.90;;;;;;5015920;28;20498;-52
2022/08/19 06:00:33;;;;;;;15.37;8.60;;;20.20;99.90;;;;;;5005344;28;20945;-52
2022/08/19 06:03:02;;;;;;;20.57;9.00;;;20.20;99.90;;;;;;5004505;28;20496;-52
2022/08/19 06:05:29;;;;;;;10.17;9.27;;;20.20;99.90;;;;;;5014846;28;20471;-52
2022/08/19 06:07:58;;;;;;;10.77;9.67;;;20.30;99.90;;;;;;5014451;28;21023;-52
2022/08/19 06:10:25;;;;;;;11.10;10.10;;;20.40;99.90;;;;;;5012343;28;20539;-52
2022/08/19 06:12:52;;;;;;;9.90;8.90;;;20.40;99.90;;;;;;5011034;28;20491;-52
2022/08/19 06:15:19;;;;;;;10.10;9.30;;;20.50;99.90;;;;;;5019120;28;21251;-52
2022/08/19 06:17:45;;;;;;;10.30;9.30;;;20.60;99.90;;;;;;5009360;28;20574;-52
2022/08/19 06:20:15;;;;;;;14.83;9.50;;;20.60;99.90;;;;;;5005761;28;20564;-52
2022/08/19 06:22:43;;;;;;;11.27;10.00;;;20.70;99.90;;;;;;5002806;28;20549;-51
2022/08/19 06:25:12;;;;;;;11.43;10.40;;;20.70;99.90;;;;;;5022319;28;21078;-52
2022/08/19 06:27:40;;;;;;;17.87;11.17;;;20.70;99.90;;;;;;5014620;28;20539;-51
2022/08/19 06:30:08;;;;;;;12.87;11.47;;;20.80;99.90;;;;;;5009225;28;20495;-52
2022/08/19 06:32:34;;;;;;;18.93;10.43;;;20.80;99.90;;;;;;5009450;28;21019;-51
2022/08/19 06:35:01;;;;;;;13.20;10.53;;;20.80;99.90;;;;;;5009666;28;20526;-54
2022/08/19 06:37:27;;;;;;;11.63;10.60;;;20.70;99.90;;;;;;5016218;28;20582;-53
2022/08/19 06:39:54;;;;;;;12.90;11.60;;;20.80;99.90;;;;;;5007659;28;20551;-53
2022/08/19 06:42:22;;;;;;;13.50;12.10;;;20.80;99.90;;;;;;5010113;28;20562;-53
2022/08/19 06:44:49;;;;;;;11.93;10.87;;;20.80;99.90;;;;;;5008708;28;21050;-52
2022/08/19 06:47:18;;;;;;;13.50;11.67;;;20.80;99.90;;;;;;5008399;28;20490;-52
2022/08/19 06:49:45;;;;;;;14.00;12.37;;;20.90;99.90;;;;;;5009404;28;20487;-52
2022/08/19 06:52:14;;;;;;;17.43;12.13;;;21.00;99.90;;;;;;5014945;28;20943;-52
2022/08/19 06:54:41;;;;;;;16.10;11.97;;;21.00;99.90;;;;;;5008811;28;20486;-51
2022/08/19 06:57:13;;;;;;;14.07;11.60;;;21.00;99.90;;;;;;5007116;28;22253;-52
2022/08/19 06:59:40;;;;;;;13.37;11.70;;;21.00;99.90;;;;;;5011066;28;20973;-52
2022/08/19 07:02:08;;;;;;;12.70;11.50;;;21.10;99.90;;;;;;5005314;28;20543;-51
2022/08/19 07:04:36;;;;;;;14.70;12.40;;;21.20;99.90;;;;;;5004270;28;20566;-52
2022/08/19 07:07:07;;;;;;;14.87;11.67;;;21.20;99.90;;;;;;5007063;28;20491;-52
2022/08/19 07:09:36;;;;;;;12.70;11.20;;;21.20;99.90;;;;;;5013861;28;20824;-52
2022/08/19 07:12:06;;;;;;;15.43;12.53;;;21.20;99.90;;;;;;5014314;28;20820;-52
2022/08/19 07:14:35;;;;;;;16.30;12.10;;;21.20;99.90;;;;;;5019777;28;20487;-51
2022/08/19 07:17:04;;;;;;;12.67;11.50;;;21.20;99.90;;;;;;5012010;28;20823;-53
2022/08/19 07:19:31;;;;;;;13.57;12.37;;;21.20;99.90;;;;;;5015569;28;20545;-52
2022/08/19 07:22:01;;;;;;;13.07;11.90;;;21.20;99.90;;;;;;5015512;28;20901;-52
2022/08/19 07:24:28;;;;;;;13.33;12.13;;;21.20;99.90;;;;;;5009937;28;20488;-52
2022/08/19 07:27:01;;;;;;;12.20;11.00;;;21.20;99.90;;;;;;5006277;28;20981;-52
2022/08/19 07:29:28;;;;;;;12.07;10.93;;;21.20;99.90;;;;;;5006648;28;20471;-51
2022/08/19 07:31:58;;;;;;;15.17;12.50;;;21.10;99.90;;;;;;5010669;28;20542;-52
2022/08/19 07:34:28;;;;;;;14.57;12.37;;;21.10;99.90;;;;;;5021620;28;20487;-52
2022/08/19 07:36:56;;;;;;;13.50;12.20;;;21.10;99.90;;;;;;5007338;28;20566;-52
2022/08/19 07:39:25;;;;;;;13.73;12.33;;;21.20;99.90;;;;;;5015232;28;20498;-52
2022/08/19 07:41:52;;;;;;;15.17;11.70;;;21.20;99.90;;;;;;5021172;28;20503;-52
2022/08/19 07:44:20;;;;;;;12.50;10.83;;;21.30;99.90;;;;;;5008530;28;20484;-52
2022/08/19 07:46:50;;;;;;;13.10;11.17;;;21.30;99.90;;;;;;5015685;28;20463;-52
2022/08/19 07:49:18;;;;;;;13.70;12.27;;;21.30;99.90;;;;;;5028737;28;20971;-52
2022/08/19 07:51:48;;;;;;;12.87;11.27;;;21.40;99.90;;;;;;5013121;28;20824;-52
2022/08/19 07:54:15;;;;;;;13.13;12.03;;;21.30;99.90;;;;;;5020396;28;20899;-51
2022/08/19 07:56:41;;;;;;;12.07;10.97;;;21.30;99.90;;;;;;5013474;28;20569;-52
2022/08/19 07:59:08;;;;;;;12.00;10.90;;;21.40;99.90;;;;;;5013016;28;20479;-52
2022/08/19 08:01:36;;;;;;;12.83;11.67;;;21.40;99.90;;;;;;5007868;28;21029;-53
2022/08/19 08:09:37;;;;;;;11.93;10.93;;;21.40;99.90;;;;;;5004133;28;21175;-51
2022/08/19 08:12:06;;;;;;;13.87;12.27;;;21.50;99.90;;;;;;5010274;28;21025;-53
2022/08/19 08:14:35;;;;;;;12.23;11.13;;;21.50;99.90;;;;;;5016282;28;20625;-52
2022/08/19 08:17:03;;;;;;;11.90;10.90;;;21.50;99.90;;;;;;5014405;28;20847;-52
2022/08/19 08:19:30;;;;;;;11.73;10.67;;;21.50;99.90;;;;;;5032611;28;20520;-53
2022/08/19 08:22:00;;;;;;;11.97;10.80;;;21.50;99.90;;;;;;5019083;28;20474;-51
2022/08/19 08:24:28;;;;;;;10.50;9.50;;;21.40;99.90;;;;;;5008141;28;20487;-52
2022/08/19 08:26:56;;;;;;;12.07;10.83;;;21.40;99.90;;;;;;5010309;28;20456;-52
2022/08/19 08:29:22;;;;;;;16.93;10.50;;;21.50;99.90;;;;;;5010206;28;20994;-52
2022/08/19 08:31:49;;;;;;;13.63;10.77;;;21.50;99.90;;;;;;5013405;28;20498;-52
2022/08/19 08:34:15;;;;;;;11.10;10.20;;;21.50;99.90;;;;;;5003532;28;20574;-53
2022/08/19 08:36:45;;;;;;;11.93;10.73;;;21.50;99.90;;;;;;5008891;28;20846;-53
2022/08/19 08:39:14;;;;;;;11.50;10.30;;;21.50;99.90;;;;;;5011999;28;20509;-53
2022/08/19 08:41:48;;;;;;;12.07;10.97;;;21.50;99.90;;;;;;5009289;28;20463;-53
2022/08/19 08:44:21;;;;;;;11.67;10.70;;;21.50;99.90;;;;;;5011160;28;20478;-52
2022/08/19 08:46:52;;;;;;;13.13;11.73;;;21.50;99.90;;;;;;5009358;28;20808;-52
2022/08/19 08:49:28;;;;;;;14.13;11.00;;;21.50;99.90;;;;;;5009625;28;20916;-52
2022/08/19 08:52:02;;;;;;;12.93;11.77;;;21.50;99.90;;;;;;5021316;28;20942;-52
2022/08/19 08:54:36;;;;;;;12.97;11.77;;;21.60;99.90;;;;;;5008595;28;20475;-53
2022/08/19 08:57:08;;;;;;;12.67;11.50;;;21.60;99.90;;;;;;5004840;28;22530;-53
2022/08/19 08:59:38;;;;;;;12.90;10.00;;;21.60;99.90;;;;;;5006687;28;20470;-52
2022/08/19 09:02:05;;;;;;;12.90;11.70;;;21.60;99.90;;;;;;5020659;28;20874;-52
2022/08/19 09:04:32;;;;;;;13.87;12.67;;;21.60;99.90;;;;;;5013149;28;20494;-52
2022/08/19 09:07:15;;;;;;;13.40;12.10;;;21.70;99.90;;;;;;5020161;28;20578;-52
2022/08/19 09:09:46;;;;;;;13.20;11.90;;;21.70;99.90;;;;;;5007104;28;20478;-53
2022/08/19 09:12:24;;;;;;;14.90;12.47;;;21.70;99.90;;;;;;5013327;28;20476;-53
2022/08/19 09:14:56;;;;;;;13.47;12.20;;;21.80;99.90;;;;;;5013482;28;20488;-52
2022/08/19 09:17:30;;;;;;;14.73;11.37;;;21.80;99.90;;;;;;5020931;28;20486;-52
2022/08/19 09:20:00;;;;;;;14.30;12.60;;;21.80;99.90;;;;;;5006271;28;20461;-52
2022/08/19 09:22:27;;;;;;;17.10;12.73;;;21.80;99.90;;;;;;5006110;28;21012;-52
2022/08/19 09:24:56;;;;;;;13.40;12.10;;;21.80;99.90;;;;;;5004049;28;20491;-52
2022/08/19 09:27:25;;;;;;;12.90;11.70;;;21.80;99.90;;;;;;5005175;28;20566;-52
2022/08/19 09:29:51;;;;;;;13.53;12.23;;;21.80;99.90;;;;;;5008393;28;20472;-52
2022/08/19 09:32:18;;;;;;;14.90;12.43;;;21.80;99.90;;;;;;5000504;28;20566;-52
2022/08/19 09:34:45;;;;;;;16.37;13.03;;;21.80;99.90;;;;;;5014413;28;20530;-52
2022/08/19 09:37:11;;;;;;;13.83;12.40;;;21.80;99.90;;;;;;5009598;28;20523;-51
2022/08/19 09:39:38;;;;;;;13.37;11.70;;;21.90;99.90;;;;;;5007934;28;20981;-52
2022/08/19 09:42:11;;;;;;;15.50;13.20;;;22.00;99.90;;;;;;5019403;28;20463;-52
2022/08/19 09:44:38;;;;;;;19.00;13.20;;;22.10;99.90;;;;;;5013493;28;20469;-52
2022/08/19 09:47:05;;;;;;;14.60;13.30;;;22.20;99.90;;;;;;5010522;28;21057;-52
2022/08/19 09:49:31;;;;;;;13.83;12.43;;;22.30;99.90;;;;;;5019771;28;20456;-51
2022/08/19 09:51:58;;;;;;;12.93;11.80;;;22.30;99.90;;;;;;5011622;28;20463;-52
2022/08/19 09:54:25;;;;;;;14.30;10.83;;;22.40;99.90;;;;;;5011414;28;20511;-52
2022/08/19 09:56:52;;;;;;;15.67;13.93;;;22.30;36.80;;;;;;5012728;28;20821;-52
2022/08/19 09:59:20;;;;;;;13.50;12.10;;;22.40;44.60;;;;;;5012983;28;20491;-52
2022/08/19 10:01:47;;;;;;;14.07;12.67;;;22.50;48.40;;;;;;5007964;28;20566;-52
2022/08/19 10:04:14;;;;;;;12.60;11.30;;;22.50;58.70;;;;;;5010480;28;20550;-52
2022/08/19 10:06:47;;;;;;;13.07;11.90;;;22.50;62.00;;;;;;5003824;28;20483;-52
2022/08/19 10:09:15;;;;;;;13.40;12.20;;;22.60;74.40;;;;;;5012145;28;20468;-52
2022/08/19 10:11:45;;;;;;;11.83;10.67;;;22.60;84.80;;;;;;5010475;28;20495;-52
2022/08/19 10:14:12;;;;;;;12.80;11.60;;;22.60;88.80;;;;;;5009543;28;20577;-53
2022/08/19 10:16:41;;;;;;;11.90;10.90;;;22.60;99.90;;;;;;5008599;28;20546;-51
2022/08/19 10:19:09;;;;;;;11.47;10.30;;;22.70;99.90;;;;;;5005111;28;20479;-53
2022/08/19 10:21:35;;;;;;;12.47;11.20;;;22.60;99.90;;;;;;5015603;28;20459;-52
2022/08/19 10:24:05;;;;;;;12.63;11.40;;;22.60;99.90;;;;;;5011411;28;21104;-53
2022/08/19 10:26:35;;;;;;;13.33;11.83;;;22.60;99.90;;;;;;5008008;28;20499;-53
2022/08/19 10:29:04;;;;;;;12.50;11.20;;;22.60;99.90;;;;;;5013980;28;20464;-52
2022/08/19 10:31:33;;;;;;;12.80;11.60;;;22.60;99.90;;;;;;5017583;28;20458;-52
2022/08/19 10:34:01;;;;;;;11.97;10.80;;;22.60;99.90;;;;;;5011425;28;20561;-51
2022/08/19 10:36:30;;;;;;;12.53;11.33;;;22.70;99.90;;;;;;5008008;28;20460;-52
2022/08/19 10:39:00;;;;;;;12.43;10.83;;;22.70;99.90;;;;;;5009202;28;21016;-52
2022/08/19 10:41:30;;;;;;;12.33;10.80;;;22.80;99.90;;;;;;5008227;28;20858;-52
2022/08/19 10:43:58;;;;;;;11.83;10.80;;;22.80;99.90;;;;;;5019131;28;20514;-52
2022/08/19 10:46:27;;;;;;;12.47;11.27;;;22.80;99.90;;;;;;5010903;28;20555;-52
2022/08/19 10:48:54;;;;;;;14.37;10.70;;;22.80;99.90;;;;;;5009049;28;20463;-53
2022/08/19 10:54:07;;;;;;;14.63;11.10;;;22.80;99.90;;;;;;5007645;28;20849;-53
2022/08/19 10:56:52;;;;;;;11.60;10.40;;;22.80;99.90;;;;;;5014795;28;20506;-53
2022/08/19 10:59:20;;;;;;;11.37;10.23;;;22.80;99.90;;;;;;5006562;28;20467;-52
2022/08/19 11:01:47;;;;;;;15.97;11.13;;;22.80;99.90;;;;;;5003560;28;20503;-53
2022/08/19 11:04:17;;;;;;;11.50;10.27;;;22.80;99.90;;;;;;4999027;28;20537;-52
2022/08/19 11:06:47;;;;;;;16.10;10.60;;;22.80;99.90;;;;;;5005618;28;20493;-52
2022/08/19 11:09:14;;;;;;;11.83;9.03;;;22.80;99.90;;;;;;5003144;28;20612;-52
2022/08/19 11:11:41;;;;;;;9.53;8.70;;;22.70;99.90;;;;;;5005998;28;20778;-51
2022/08/19 11:14:09;;;;;;;11.20;10.10;;;22.70;99.90;;;;;;5004155;28;21105;-52
2022/08/19 11:16:37;;;;;;;12.83;10.93;;;22.70;99.90;;;;;;5016791;28;20928;-53
2022/08/19 11:19:04;;;;;;;10.60;9.63;;;22.70;99.90;;;;;;4999243;28;20471;-52
2022/08/19 11:21:32;;;;;;;10.37;9.37;;;22.80;99.90;;;;;;5012419;28;20545;-52
2022/08/19 11:24:03;;;;;;;9.87;8.70;;;22.80;99.90;;;;;;5012306;28;20491;-52
2022/08/19 11:26:31;;;;;;;11.33;9.43;;;22.80;99.90;;;;;;5009649;28;21053;-53
2022/08/19 11:28:59;;;;;;;9.90;8.90;;;22.80;99.90;;;;;;5012317;28;20499;-52
2022/08/19 11:31:30;;;;;;;9.83;8.93;;;22.90;99.90;;;;;;5005009;28;20470;-53
2022/08/19 11:33:57;;;;;;;9.00;8.23;;;22.90;99.90;;;;;;5012142;28;20578;-52
2022/08/19 11:36:23;;;;;;;9.30;8.13;;;22.90;99.90;;;;;;5012803;28;20475;-52
2022/08/19 11:38:51;;;;;;;8.87;8.07;;;22.90;99.90;;;;;;5009518;28;20893;-53
2022/08/19 11:41:22;;;;;;;9.10;8.20;;;22.90;99.90;;;;;;5012623;28;20566;-52
2022/08/19 11:43:49;;;;;;;8.20;7.60;;;22.80;99.90;;;;;;5011713;28;20887;-52
2022/08/19 11:46:17;;;;;;;10.17;9.20;;;22.80;99.90;;;;;;5014029;28;20800;-52
2022/08/19 11:48:44;;;;;;;10.80;9.80;;;22.80;99.90;;;;;;5017776;28;20460;-51
2022/08/19 11:51:13;;;;;;;7.83;7.23;;;22.70;99.90;;;;;;5012699;28;20490;-53
2022/08/19 11:53:40;;;;;;;9.43;8.40;;;22.70;99.90;;;;;;5015749;28;21047;-52
2022/08/19 11:56:08;;;;;;;9.10;7.90;;;22.70;99.90;;;;;;5018390;28;20894;-52
2022/08/19 11:58:37;;;;;;;10.60;9.23;;;22.70;99.90;;;;;;5021834;28;21021;-52
2022/08/19 12:01:06;;;;;;;10.00;8.90;;;22.80;99.90;;;;;;5012731;28;20503;-53
2022/08/19 12:03:33;;;;;;;11.17;10.20;;;22.80;99.90;;;;;;5018778;28;20474;-51
2022/08/19 12:06:03;;;;;;;8.93;8.13;;;22.80;99.90;;;;;;5019571;28;20933;-51
2022/08/19 12:08:30;;;;;;;9.23;8.43;;;22.80;99.90;;;;;;5009672;28;20969;-51
2022/08/19 12:10:56;;;;;;;10.93;9.77;;;22.70;99.90;;;;;;5016107;28;20882;-51
2022/08/19 12:13:23;;;;;;;9.20;8.27;;;22.70;99.90;;;;;;5013793;28;20509;-51
2022/08/19 12:15:52;;;;;;;10.50;8.90;;;22.70;99.90;;;;;;5006864;28;20907;-51
2022/08/19 12:18:19;;;;;;;8.57;7.87;;;22.60;99.90;;;;;;5011922;28;20500;-52
2022/08/19 12:20:47;;;;;;;9.27;8.57;;;22.60;99.90;;;;;;5014162;28;20495;-52
2022/08/19 12:23:14;;;;;;;9.93;9.10;;;22.50;99.90;;;;;;5018830;28;20462;-51
2022/08/19 12:25:49;;;;;;;9.20;8.50;;;22.50;99.90;;;;;;5022192;28;20562;-51
2022/08/19 12:28:16;;;;;;;9.70;8.80;;;22.50;99.90;;;;;;5010300;28;20455;-51
2022/08/19 12:30:43;;;;;;;9.90;8.90;;;22.40;99.90;;;;;;5010085;28;20506;-52
2022/08/19 12:33:11;;;;;;;9.17;8.47;;;22.40;99.90;;;;;;5013117;28;20451;-53
2022/08/19 12:35:40;;;;;;;10.70;9.10;;;22.40;99.90;;;;;;5010244;28;20515;-52
2022/08/19 12:38:07;;;;;;;9.90;8.40;;;22.40;99.90;;;;;;5022077;28;21088;-52
2022/08/19 12:40:33;;;;;;;9.00;8.10;;;22.40;99.90;;;;;;5014878;28;20477;-52
2022/08/19 12:43:00;;;;;;;10.40;8.93;;;22.40;99.90;;;;;;5019258;28;20490;-53
2022/08/19 12:45:27;;;;;;;10.07;9.03;;;22.40;99.90;;;;;;5012399;28;21068;-53
2022/08/19 12:47:53;;;;;;;9.33;8.53;;;22.50;99.90;;;;;;5010682;28;20804;-52
2022/08/19 12:50:21;;;;;;;9.40;8.50;;;22.50;99.90;;;;;;5007805;28;20459;-52
2022/08/19 12:52:48;;;;;;;9.70;8.90;;;22.50;99.90;;;;;;4999612;28;20546;-52
2022/08/19 12:55:15;;;;;;;9.70;8.80;;;22.50;99.90;;;;;;5008812;28;21025;-52
2022/08/19 12:57:42;;;;;;;12.73;9.37;;;22.60;99.90;;;;;;5008105;28;20834;-51